sensor_id;sensor_type;location;lat;lon;timestamp;P1;durP1;ratioP1;P2;durP2;ratioP2
45354;SDS011;31091;48.758;9.150;2022-12-04T11:54:53;26.35;;;13.25;;
45354;SDS011;31091;48.758;9.150;2022-12-04T12:00:41;24.58;;;13.90;;
45354;SDS011;31091;48.758;9.150;2022-12-04T12:03:33;23.08;;;12.52;;
45354;SDS011;31091;48.758;9.150;2022-12-04T12:12:15;20.98;;;11.07;;
45354;SDS011;31091;48.758;9.150;2022-12-04T12:21:01;24.17;;;12.27;;
45354;SDS011;31091;48.758;9.150;2022-12-04T12:23:54;24.85;;;13.10;;
45354;SDS011;31091;48.758;9.150;2022-12-04T12:29:37;21.60;;;11.20;;
45354;SDS011;31091;48.758;9.150;2022-12-04T12:35:29;26.00;;;14.65;;
45354;SDS011;31091;48.758;9.150;2022-12-04T12:38:16;24.25;;;14.20;;
45354;SDS011;31091;48.758;9.150;2022-12-04T12:41:12;23.05;;;13.00;;
45354;SDS011;31091;48.758;9.150;2022-12-04T12:44:02;22.20;;;13.75;;
45354;SDS011;31091;48.758;9.150;2022-12-04T12:46:50;27.48;;;15.20;;
45354;SDS011;31091;48.758;9.150;2022-12-04T12:49:45;26.35;;;14.75;;
45354;SDS011;31091;48.758;9.150;2022-12-04T12:52:37;28.17;;;14.07;;
45354;SDS011;31091;48.758;9.150;2022-12-04T12:55:24;26.08;;;12.60;;
45354;SDS011;31091;48.758;9.150;2022-12-04T12:58:12;25.02;;;13.45;;
45354;SDS011;31091;48.758;9.150;2022-12-04T13:01:01;23.02;;;12.57;;
45354;SDS011;31091;48.758;9.150;2022-12-04T13:03:51;26.48;;;14.00;;
45354;SDS011;31091;48.758;9.150;2022-12-04T13:06:39;27.77;;;14.90;;
45354;SDS011;31091;48.758;9.150;2022-12-04T13:09:30;29.05;;;15.27;;
45354;SDS011;31091;48.758;9.150;2022-12-04T13:12:17;27.88;;;14.02;;
45354;SDS011;31091;48.758;9.150;2022-12-04T13:15:03;26.45;;;14.25;;
45354;SDS011;31091;48.758;9.150;2022-12-04T13:17:49;26.02;;;13.45;;
45354;SDS011;31091;48.758;9.150;2022-12-04T13:20:49;30.45;;;14.60;;
45354;SDS011;31091;48.758;9.150;2022-12-04T13:41:32;26.63;;;13.60;;
45354;SDS011;31091;48.758;9.150;2022-12-04T13:44:20;23.83;;;12.85;;
45354;SDS011;31091;48.758;9.150;2022-12-04T13:47:06;23.60;;;13.35;;
45354;SDS011;31091;48.758;9.150;2022-12-04T13:50:03;26.52;;;14.32;;
45354;SDS011;31091;48.758;9.150;2022-12-04T13:52:49;28.80;;;13.55;;
45354;SDS011;31091;48.758;9.150;2022-12-04T13:55:35;27.13;;;13.85;;
45354;SDS011;31091;48.758;9.150;2022-12-04T13:58:25;27.88;;;14.90;;
45354;SDS011;31091;48.758;9.150;2022-12-04T14:03:57;22.70;;;12.40;;
45354;SDS011;31091;48.758;9.150;2022-12-04T14:06:43;20.50;;;11.50;;
45354;SDS011;31091;48.758;9.150;2022-12-04T14:09:46;21.95;;;12.15;;
45354;SDS011;31091;48.758;9.150;2022-12-04T14:12:37;23.90;;;13.40;;
45354;SDS011;31091;48.758;9.150;2022-12-04T14:15:24;22.40;;;12.63;;
45354;SDS011;31091;48.758;9.150;2022-12-04T14:21:00;21.27;;;11.60;;
45354;SDS011;31091;48.758;9.150;2022-12-04T14:23:46;19.95;;;11.63;;
45354;SDS011;31091;48.758;9.150;2022-12-04T14:26:31;20.05;;;11.07;;
45354;SDS011;31091;48.758;9.150;2022-12-04T14:32:06;21.48;;;11.65;;
45354;SDS011;31091;48.758;9.150;2022-12-04T14:34:52;23.75;;;12.13;;
45354;SDS011;31091;48.758;9.150;2022-12-04T14:37:39;18.85;;;10.68;;
45354;SDS011;31091;48.758;9.150;2022-12-04T14:40:28;20.75;;;10.68;;
45354;SDS011;31091;48.758;9.150;2022-12-04T14:43:21;19.33;;;11.23;;
45354;SDS011;31091;48.758;9.150;2022-12-04T15:00:19;20.92;;;11.65;;
45354;SDS011;31091;48.758;9.150;2022-12-04T15:03:08;22.85;;;11.57;;
45354;SDS011;31091;48.758;9.150;2022-12-04T15:06:00;23.02;;;12.93;;
45354;SDS011;31091;48.758;9.150;2022-12-04T15:08:50;24.67;;;13.25;;
45354;SDS011;31091;48.758;9.150;2022-12-04T15:11:43;21.42;;;12.40;;
45354;SDS011;31091;48.758;9.150;2022-12-04T15:14:56;19.57;;;11.67;;
45354;SDS011;31091;48.758;9.150;2022-12-04T15:17:42;24.33;;;12.15;;
45354;SDS011;31091;48.758;9.150;2022-12-04T15:20:28;21.75;;;12.48;;
45354;SDS011;31091;48.758;9.150;2022-12-04T15:23:24;25.50;;;12.98;;
45354;SDS011;31091;48.758;9.150;2022-12-04T15:26:12;26.13;;;14.02;;
45354;SDS011;31091;48.758;9.150;2022-12-04T15:28:58;62.28;;;31.15;;
45354;SDS011;31091;48.758;9.150;2022-12-04T15:31:45;27.63;;;14.00;;
45354;SDS011;31091;48.758;9.150;2022-12-04T15:34:42;21.30;;;12.13;;
45354;SDS011;31091;48.758;9.150;2022-12-04T15:37:29;22.63;;;11.60;;
45354;SDS011;31091;48.758;9.150;2022-12-04T15:40:18;23.52;;;12.93;;
45354;SDS011;31091;48.758;9.150;2022-12-04T15:43:16;26.10;;;12.77;;
45354;SDS011;31091;48.758;9.150;2022-12-04T15:46:09;25.65;;;13.30;;
45354;SDS011;31091;48.758;9.150;2022-12-04T15:52:04;24.17;;;12.52;;
45354;SDS011;31091;48.758;9.150;2022-12-04T15:54:54;21.85;;;11.45;;
45354;SDS011;31091;48.758;9.150;2022-12-04T15:57:43;24.52;;;12.27;;
45354;SDS011;31091;48.758;9.150;2022-12-04T16:00:35;21.25;;;10.82;;
45354;SDS011;31091;48.758;9.150;2022-12-04T16:03:23;23.13;;;11.68;;
45354;SDS011;31091;48.758;9.150;2022-12-04T16:06:22;27.00;;;13.65;;
45354;SDS011;31091;48.758;9.150;2022-12-04T16:09:13;22.02;;;12.88;;
45354;SDS011;31091;48.758;9.150;2022-12-04T16:12:14;25.80;;;12.88;;
45354;SDS011;31091;48.758;9.150;2022-12-04T16:14:59;25.77;;;14.15;;
45354;SDS011;31091;48.758;9.150;2022-12-04T16:17:45;30.85;;;13.52;;
45354;SDS011;31091;48.758;9.150;2022-12-04T16:20:33;25.30;;;14.90;;
45354;SDS011;31091;48.758;9.150;2022-12-04T16:23:21;23.67;;;12.73;;
45354;SDS011;31091;48.758;9.150;2022-12-04T16:26:13;24.85;;;13.85;;
45354;SDS011;31091;48.758;9.150;2022-12-04T16:28:58;23.90;;;12.85;;
45354;SDS011;31091;48.758;9.150;2022-12-04T16:31:44;25.45;;;13.60;;
45354;SDS011;31091;48.758;9.150;2022-12-04T16:34:29;23.95;;;13.80;;
45354;SDS011;31091;48.758;9.150;2022-12-04T16:37:16;29.35;;;15.52;;
45354;SDS011;31091;48.758;9.150;2022-12-04T16:40:02;24.58;;;13.57;;
45354;SDS011;31091;48.758;9.150;2022-12-04T16:42:50;23.55;;;13.82;;
45354;SDS011;31091;48.758;9.150;2022-12-04T16:45:35;26.08;;;14.60;;
45354;SDS011;31091;48.758;9.150;2022-12-04T16:48:20;34.80;;;15.90;;
45354;SDS011;31091;48.758;9.150;2022-12-04T16:51:07;28.90;;;15.50;;
45354;SDS011;31091;48.758;9.150;2022-12-04T16:53:53;26.50;;;13.60;;
45354;SDS011;31091;48.758;9.150;2022-12-04T16:56:38;28.00;;;13.52;;
45354;SDS011;31091;48.758;9.150;2022-12-04T16:59:23;26.77;;;14.43;;
45354;SDS011;31091;48.758;9.150;2022-12-04T17:02:16;26.90;;;14.30;;
45354;SDS011;31091;48.758;9.150;2022-12-04T17:05:04;29.75;;;15.27;;
45354;SDS011;31091;48.758;9.150;2022-12-04T17:07:49;26.05;;;14.02;;
45354;SDS011;31091;48.758;9.150;2022-12-04T17:10:34;30.20;;;15.63;;
45354;SDS011;31091;48.758;9.150;2022-12-04T17:13:20;27.40;;;14.57;;
45354;SDS011;31091;48.758;9.150;2022-12-04T17:16:05;25.88;;;14.63;;
45354;SDS011;31091;48.758;9.150;2022-12-04T17:18:51;29.60;;;15.52;;
45354;SDS011;31091;48.758;9.150;2022-12-04T17:21:36;34.85;;;16.90;;
45354;SDS011;31091;48.758;9.150;2022-12-04T17:24:22;29.45;;;13.35;;
45354;SDS011;31091;48.758;9.150;2022-12-04T17:27:07;29.90;;;14.63;;
45354;SDS011;31091;48.758;9.150;2022-12-04T17:29:57;32.63;;;16.02;;
45354;SDS011;31091;48.758;9.150;2022-12-04T17:32:43;28.05;;;14.13;;
45354;SDS011;31091;48.758;9.150;2022-12-04T17:35:30;31.13;;;14.70;;
45354;SDS011;31091;48.758;9.150;2022-12-04T17:38:15;29.23;;;15.00;;
45354;SDS011;31091;48.758;9.150;2022-12-04T17:41:01;28.70;;;14.30;;
45354;SDS011;31091;48.758;9.150;2022-12-04T17:43:46;31.52;;;16.20;;
45354;SDS011;31091;48.758;9.150;2022-12-04T17:46:31;35.38;;;16.02;;
45354;SDS011;31091;48.758;9.150;2022-12-04T17:49:16;32.20;;;15.75;;
45354;SDS011;31091;48.758;9.150;2022-12-04T17:52:02;32.38;;;14.55;;
45354;SDS011;31091;48.758;9.150;2022-12-04T17:54:48;35.47;;;14.98;;
45354;SDS011;31091;48.758;9.150;2022-12-04T17:57:34;36.30;;;16.23;;
45354;SDS011;31091;48.758;9.150;2022-12-04T18:00:19;31.40;;;15.85;;
45354;SDS011;31091;48.758;9.150;2022-12-04T18:03:04;30.38;;;13.80;;
45354;SDS011;31091;48.758;9.150;2022-12-04T18:05:49;33.63;;;15.80;;
45354;SDS011;31091;48.758;9.150;2022-12-04T18:08:35;32.65;;;15.32;;
45354;SDS011;31091;48.758;9.150;2022-12-04T18:11:21;30.98;;;14.80;;
45354;SDS011;31091;48.758;9.150;2022-12-04T18:14:08;33.38;;;16.52;;
45354;SDS011;31091;48.758;9.150;2022-12-04T18:16:54;32.45;;;14.63;;
45354;SDS011;31091;48.758;9.150;2022-12-04T18:19:40;31.52;;;15.30;;
45354;SDS011;31091;48.758;9.150;2022-12-04T18:22:25;31.25;;;15.30;;
45354;SDS011;31091;48.758;9.150;2022-12-04T18:25:10;35.63;;;16.20;;
45354;SDS011;31091;48.758;9.150;2022-12-04T18:27:56;32.13;;;14.70;;
45354;SDS011;31091;48.758;9.150;2022-12-04T18:30:42;32.15;;;15.02;;
45354;SDS011;31091;48.758;9.150;2022-12-04T18:33:31;32.38;;;16.27;;
45354;SDS011;31091;48.758;9.150;2022-12-04T18:36:17;33.85;;;17.08;;
45354;SDS011;31091;48.758;9.150;2022-12-04T18:39:04;35.35;;;16.65;;
45354;SDS011;31091;48.758;9.150;2022-12-04T18:41:51;33.55;;;15.85;;
45354;SDS011;31091;48.758;9.150;2022-12-04T18:44:38;33.25;;;16.63;;
45354;SDS011;31091;48.758;9.150;2022-12-04T18:47:23;35.90;;;15.88;;
45354;SDS011;31091;48.758;9.150;2022-12-04T18:50:08;33.45;;;18.08;;
45354;SDS011;31091;48.758;9.150;2022-12-04T18:52:53;31.92;;;15.57;;
45354;SDS011;31091;48.758;9.150;2022-12-04T18:55:39;31.80;;;15.68;;
45354;SDS011;31091;48.758;9.150;2022-12-04T18:58:24;38.03;;;16.95;;
45354;SDS011;31091;48.758;9.150;2022-12-04T19:01:10;36.72;;;16.77;;
45354;SDS011;31091;48.758;9.150;2022-12-04T19:03:57;34.33;;;18.25;;
45354;SDS011;31091;48.758;9.150;2022-12-04T19:06:44;34.00;;;17.23;;
45354;SDS011;31091;48.758;9.150;2022-12-04T19:09:29;32.88;;;16.88;;
45354;SDS011;31091;48.758;9.150;2022-12-04T19:12:15;37.58;;;18.42;;
45354;SDS011;31091;48.758;9.150;2022-12-04T19:15:00;36.13;;;17.33;;
45354;SDS011;31091;48.758;9.150;2022-12-04T19:17:45;32.55;;;16.23;;
45354;SDS011;31091;48.758;9.150;2022-12-04T19:20:31;39.17;;;17.17;;
45354;SDS011;31091;48.758;9.150;2022-12-04T19:23:16;35.97;;;17.35;;
45354;SDS011;31091;48.758;9.150;2022-12-04T19:26:01;34.83;;;16.55;;
45354;SDS011;31091;48.758;9.150;2022-12-04T19:28:47;28.77;;;15.73;;
45354;SDS011;31091;48.758;9.150;2022-12-04T19:31:34;35.03;;;16.48;;
45354;SDS011;31091;48.758;9.150;2022-12-04T19:34:19;35.60;;;16.77;;
45354;SDS011;31091;48.758;9.150;2022-12-04T19:37:05;31.08;;;16.40;;
45354;SDS011;31091;48.758;9.150;2022-12-04T19:39:50;34.60;;;16.75;;
45354;SDS011;31091;48.758;9.150;2022-12-04T19:42:36;29.95;;;15.73;;
45354;SDS011;31091;48.758;9.150;2022-12-04T19:45:21;31.27;;;15.95;;
45354;SDS011;31091;48.758;9.150;2022-12-04T19:48:06;32.20;;;16.27;;
45354;SDS011;31091;48.758;9.150;2022-12-04T19:50:51;28.70;;;15.48;;
45354;SDS011;31091;48.758;9.150;2022-12-04T19:53:37;31.48;;;15.60;;
45354;SDS011;31091;48.758;9.150;2022-12-04T19:56:23;27.60;;;14.27;;
45354;SDS011;31091;48.758;9.150;2022-12-04T19:59:09;34.55;;;17.25;;
45354;SDS011;31091;48.758;9.150;2022-12-04T20:01:54;31.65;;;15.98;;
45354;SDS011;31091;48.758;9.150;2022-12-04T20:04:39;29.08;;;15.73;;
45354;SDS011;31091;48.758;9.150;2022-12-04T20:07:24;30.80;;;16.08;;
45354;SDS011;31091;48.758;9.150;2022-12-04T20:10:10;29.60;;;16.00;;
45354;SDS011;31091;48.758;9.150;2022-12-04T20:12:55;28.08;;;15.80;;
45354;SDS011;31091;48.758;9.150;2022-12-04T20:15:41;28.08;;;16.45;;
45354;SDS011;31091;48.758;9.150;2022-12-04T20:18:26;33.30;;;15.77;;
45354;SDS011;31091;48.758;9.150;2022-12-04T20:21:11;31.33;;;16.50;;
45354;SDS011;31091;48.758;9.150;2022-12-04T20:23:59;28.48;;;14.40;;
45354;SDS011;31091;48.758;9.150;2022-12-04T20:26:44;29.10;;;16.17;;
45354;SDS011;31091;48.758;9.150;2022-12-04T20:29:30;29.85;;;15.73;;
45354;SDS011;31091;48.758;9.150;2022-12-04T20:32:15;34.28;;;15.80;;
45354;SDS011;31091;48.758;9.150;2022-12-04T20:35:00;28.80;;;15.63;;
45354;SDS011;31091;48.758;9.150;2022-12-04T20:37:46;33.92;;;16.05;;
45354;SDS011;31091;48.758;9.150;2022-12-04T20:40:32;32.65;;;15.48;;
45354;SDS011;31091;48.758;9.150;2022-12-04T20:43:17;30.75;;;17.38;;
45354;SDS011;31091;48.758;9.150;2022-12-04T20:46:11;29.55;;;16.23;;
45354;SDS011;31091;48.758;9.150;2022-12-04T20:48:57;30.77;;;16.38;;
45354;SDS011;31091;48.758;9.150;2022-12-04T20:51:44;32.45;;;15.73;;
45354;SDS011;31091;48.758;9.150;2022-12-04T20:54:31;31.13;;;15.10;;
45354;SDS011;31091;48.758;9.150;2022-12-04T20:57:17;33.28;;;16.40;;
45354;SDS011;31091;48.758;9.150;2022-12-04T21:00:02;36.75;;;16.98;;
45354;SDS011;31091;48.758;9.150;2022-12-04T21:02:48;31.10;;;16.02;;
45354;SDS011;31091;48.758;9.150;2022-12-04T21:05:33;28.35;;;16.63;;
45354;SDS011;31091;48.758;9.150;2022-12-04T21:08:18;26.27;;;14.63;;
45354;SDS011;31091;48.758;9.150;2022-12-04T21:11:24;29.85;;;17.35;;
45354;SDS011;31091;48.758;9.150;2022-12-04T21:14:18;26.65;;;14.73;;
45354;SDS011;31091;48.758;9.150;2022-12-04T21:17:22;27.63;;;15.30;;
45354;SDS011;31091;48.758;9.150;2022-12-04T21:20:07;31.08;;;16.02;;
45354;SDS011;31091;48.758;9.150;2022-12-04T21:22:53;32.25;;;16.67;;
45354;SDS011;31091;48.758;9.150;2022-12-04T21:25:38;30.15;;;16.55;;
45354;SDS011;31091;48.758;9.150;2022-12-04T21:28:23;30.17;;;15.60;;
45354;SDS011;31091;48.758;9.150;2022-12-04T21:31:09;28.60;;;15.20;;
45354;SDS011;31091;48.758;9.150;2022-12-04T21:33:54;31.17;;;15.63;;
45354;SDS011;31091;48.758;9.150;2022-12-04T21:36:40;35.42;;;17.17;;
45354;SDS011;31091;48.758;9.150;2022-12-04T21:39:25;30.08;;;14.85;;
45354;SDS011;31091;48.758;9.150;2022-12-04T21:42:11;30.45;;;16.45;;
45354;SDS011;31091;48.758;9.150;2022-12-04T21:45:14;31.10;;;14.65;;
45354;SDS011;31091;48.758;9.150;2022-12-04T21:47:59;29.08;;;15.77;;
45354;SDS011;31091;48.758;9.150;2022-12-04T21:50:44;27.92;;;13.30;;
45354;SDS011;31091;48.758;9.150;2022-12-04T21:53:30;27.73;;;14.05;;
45354;SDS011;31091;48.758;9.150;2022-12-04T21:56:15;30.33;;;13.77;;
45354;SDS011;31091;48.758;9.150;2022-12-04T21:59:00;25.38;;;12.95;;
45354;SDS011;31091;48.758;9.150;2022-12-04T22:01:45;26.65;;;14.40;;
45354;SDS011;31091;48.758;9.150;2022-12-04T22:04:31;25.63;;;13.63;;
45354;SDS011;31091;48.758;9.150;2022-12-04T22:07:16;26.17;;;14.15;;
45354;SDS011;31091;48.758;9.150;2022-12-04T22:10:01;30.67;;;15.32;;
45354;SDS011;31091;48.758;9.150;2022-12-04T22:12:46;24.85;;;13.68;;
45354;SDS011;31091;48.758;9.150;2022-12-04T22:15:34;23.48;;;11.70;;
45354;SDS011;31091;48.758;9.150;2022-12-04T22:18:20;23.02;;;11.82;;
45354;SDS011;31091;48.758;9.150;2022-12-04T22:21:06;24.05;;;11.98;;
45354;SDS011;31091;48.758;9.150;2022-12-04T22:23:55;23.73;;;11.52;;
45354;SDS011;31091;48.758;9.150;2022-12-04T22:26:40;23.27;;;11.43;;
45354;SDS011;31091;48.758;9.150;2022-12-04T22:29:25;21.60;;;10.93;;
45354;SDS011;31091;48.758;9.150;2022-12-04T22:32:11;22.38;;;10.80;;
45354;SDS011;31091;48.758;9.150;2022-12-04T22:34:56;21.55;;;9.75;;
45354;SDS011;31091;48.758;9.150;2022-12-04T22:37:41;21.33;;;10.70;;
45354;SDS011;31091;48.758;9.150;2022-12-04T22:40:26;27.75;;;11.73;;
45354;SDS011;31091;48.758;9.150;2022-12-04T22:43:11;23.83;;;11.55;;
45354;SDS011;31091;48.758;9.150;2022-12-04T22:45:57;20.65;;;10.73;;
45354;SDS011;31091;48.758;9.150;2022-12-04T22:48:43;22.80;;;11.40;;
45354;SDS011;31091;48.758;9.150;2022-12-04T22:51:29;25.75;;;12.52;;
45354;SDS011;31091;48.758;9.150;2022-12-04T22:54:14;21.45;;;11.73;;
45354;SDS011;31091;48.758;9.150;2022-12-04T22:56:59;21.60;;;11.70;;
45354;SDS011;31091;48.758;9.150;2022-12-04T22:59:44;22.63;;;11.82;;
45354;SDS011;31091;48.758;9.150;2022-12-04T23:02:31;22.13;;;11.48;;
45354;SDS011;31091;48.758;9.150;2022-12-04T23:05:16;20.08;;;9.68;;
45354;SDS011;31091;48.758;9.150;2022-12-04T23:08:01;21.83;;;11.40;;
45354;SDS011;31091;48.758;9.150;2022-12-04T23:10:47;22.42;;;12.35;;
45354;SDS011;31091;48.758;9.150;2022-12-04T23:13:32;19.25;;;10.25;;
45354;SDS011;31091;48.758;9.150;2022-12-04T23:16:17;22.08;;;10.35;;
45354;SDS011;31091;48.758;9.150;2022-12-04T23:19:03;18.83;;;10.65;;
45354;SDS011;31091;48.758;9.150;2022-12-04T23:21:49;22.27;;;11.07;;
45354;SDS011;31091;48.758;9.150;2022-12-04T23:24:34;23.17;;;10.45;;
45354;SDS011;31091;48.758;9.150;2022-12-04T23:27:24;22.70;;;11.82;;
45354;SDS011;31091;48.758;9.150;2022-12-04T23:30:09;23.23;;;11.68;;
45354;SDS011;31091;48.758;9.150;2022-12-04T23:32:55;23.55;;;10.32;;
45354;SDS011;31091;48.758;9.150;2022-12-04T23:35:40;23.35;;;11.60;;
45354;SDS011;31091;48.758;9.150;2022-12-04T23:38:25;21.63;;;11.13;;
45354;SDS011;31091;48.758;9.150;2022-12-04T23:41:19;22.98;;;11.93;;
45354;SDS011;31091;48.758;9.150;2022-12-04T23:44:04;20.38;;;10.63;;
45354;SDS011;31091;48.758;9.150;2022-12-04T23:46:50;24.55;;;11.48;;
45354;SDS011;31091;48.758;9.150;2022-12-04T23:49:35;23.38;;;11.93;;
45354;SDS011;31091;48.758;9.150;2022-12-04T23:52:20;20.92;;;11.07;;
45354;SDS011;31091;48.758;9.150;2022-12-04T23:55:05;20.58;;;10.98;;
45354;SDS011;31091;48.758;9.150;2022-12-04T23:57:51;23.85;;;12.07;;
